Time;durP1;ratioP1;P1;durP2;ratioP2;P2;SDS_P1;SDS_P2;PMS_P1;PMS_P2;Temp;Humidity;BMP_temperature;BMP_pressure;BME280_temperature;BME280_humidity;BME280_pressure;Samples;Min_cycle;Max_cycle;Signal;HPM_P1;HPM_P2
2022/07/02 00:00:02;;;;;;;7.83;7.13;;;17.00;99.90;;;;;;5047045;28;20200;-70
2022/07/02 00:02:32;;;;;;;8.00;7.13;;;17.00;99.90;;;;;;5047091;28;20212;-70
2022/07/02 00:05:02;;;;;;;7.63;7.13;;;17.00;99.90;;;;;;5047199;28;20201;-70
2022/07/02 00:07:29;;;;;;;7.90;7.13;;;17.00;99.90;;;;;;5041092;28;20209;-70
2022/07/02 00:09:58;;;;;;;7.93;7.27;;;16.90;99.90;;;;;;5028695;28;20216;-70
2022/07/02 00:12:25;;;;;;;7.83;7.20;;;16.80;99.90;;;;;;5047053;28;20201;-70
2022/07/02 00:14:53;;;;;;;9.57;8.67;;;16.70;99.90;;;;;;5047238;28;20718;-70
2022/07/02 00:17:23;;;;;;;8.33;7.47;;;16.50;99.90;;;;;;5050761;28;20255;-70
2022/07/02 00:19:51;;;;;;;8.33;7.43;;;16.50;99.90;;;;;;5050242;28;20206;-70
2022/07/02 00:22:19;;;;;;;8.17;7.47;;;16.40;99.90;;;;;;5050435;28;20204;-71
2022/07/02 00:24:46;;;;;;;9.60;8.33;;;16.40;99.90;;;;;;5050624;28;20208;-71
2022/07/02 00:27:15;;;;;;;8.07;7.47;;;16.30;99.90;;;;;;5046964;28;20583;-71
2022/07/02 00:29:49;;;;;;;8.47;7.70;;;16.20;99.90;;;;;;5038227;28;20228;-70
2022/07/02 00:32:15;;;;;;;8.67;8.07;;;16.10;99.90;;;;;;5049483;28;20200;-71
2022/07/02 00:34:45;;;;;;;8.67;8.00;;;16.10;99.90;;;;;;5050133;28;20735;-71
2022/07/02 00:37:13;;;;;;;9.03;8.37;;;16.10;99.90;;;;;;5050393;28;20208;-71
2022/07/02 00:39:41;;;;;;;9.27;8.37;;;16.10;99.90;;;;;;5050439;28;20246;-71
2022/07/02 00:42:09;;;;;;;8.47;7.87;;;16.00;99.90;;;;;;5049332;28;20204;-71
2022/07/02 00:44:37;;;;;;;8.67;8.07;;;16.00;99.90;;;;;;5042673;28;20201;-71
2022/07/02 00:47:05;;;;;;;9.67;7.90;;;16.10;99.90;;;;;;5029699;28;20746;-71
2022/07/02 00:49:33;;;;;;;8.67;7.90;;;16.00;99.90;;;;;;5029942;28;20821;-71
2022/07/02 00:52:01;;;;;;;9.37;8.57;;;16.10;99.90;;;;;;5029886;28;20212;-71
2022/07/02 00:54:28;;;;;;;10.53;8.90;;;16.20;99.90;;;;;;5036313;28;20220;-71
2022/07/02 00:56:55;;;;;;;8.87;7.97;;;16.20;99.90;;;;;;5049875;28;20221;-71
2022/07/02 00:59:24;;;;;;;8.40;7.70;;;16.10;99.90;;;;;;5050039;28;20204;-71
2022/07/02 01:01:51;;;;;;;9.30;8.53;;;16.10;99.90;;;;;;5049520;28;20584;-71
2022/07/02 01:04:18;;;;;;;8.63;7.83;;;16.00;99.90;;;;;;5049852;28;20219;-71
2022/07/02 01:06:46;;;;;;;8.67;7.97;;;16.10;99.90;;;;;;5042362;28;20197;-71
2022/07/02 01:12:00;;;;;;;11.07;8.47;;;16.20;99.90;;;;;;5032870;28;20196;-71
2022/07/02 01:14:28;;;;;;;8.20;7.50;;;16.30;99.90;;;;;;5042775;28;20246;-71
2022/07/02 01:16:56;;;;;;;8.50;7.80;;;16.30;99.90;;;;;;5049492;28;20204;-71
2022/07/02 01:19:24;;;;;;;8.83;8.03;;;16.30;99.90;;;;;;5038032;28;20205;-71
2022/07/02 01:22:12;;;;;;;8.90;8.17;;;16.30;99.90;;;;;;5029381;28;20205;-71
2022/07/02 01:24:39;;;;;;;8.23;7.70;;;16.30;99.90;;;;;;5029672;28;20205;-71
2022/07/02 01:27:06;;;;;;;8.87;7.87;;;16.20;99.90;;;;;;5029455;28;20213;-71
2022/07/02 01:29:34;;;;;;;9.03;8.20;;;16.20;99.90;;;;;;5048554;28;20243;-71
2022/07/02 01:32:00;;;;;;;9.03;8.10;;;16.10;99.90;;;;;;5049130;28;20933;-71
2022/07/02 01:34:28;;;;;;;9.30;8.60;;;16.10;99.90;;;;;;5049374;28;20698;-71
2022/07/02 01:36:55;;;;;;;8.80;7.97;;;16.10;99.90;;;;;;5049165;28;20538;-71
2022/07/02 01:39:26;;;;;;;9.47;8.63;;;16.20;99.90;;;;;;5049290;28;20215;-71
2022/07/02 01:41:52;;;;;;;8.70;8.00;;;16.20;99.90;;;;;;5048306;28;20674;-71
2022/07/02 01:44:19;;;;;;;9.90;9.03;;;16.20;99.90;;;;;;5048948;28;20674;-71
2022/07/02 01:46:46;;;;;;;9.20;8.30;;;16.10;99.90;;;;;;5049227;28;20391;-71
2022/07/02 01:49:13;;;;;;;9.43;8.70;;;16.00;99.90;;;;;;5048971;28;20208;-71
2022/07/02 01:51:43;;;;;;;9.83;9.00;;;16.00;99.90;;;;;;5048698;28;20609;-71
2022/07/02 01:54:10;;;;;;;9.70;8.90;;;16.00;99.90;;;;;;5035433;28;20595;-71
2022/07/02 01:56:38;;;;;;;10.07;9.27;;;15.90;99.90;;;;;;5028975;28;20201;-71
2022/07/02 01:59:05;;;;;;;9.70;8.90;;;15.90;99.90;;;;;;5028784;28;20769;-71
2022/07/02 02:01:32;;;;;;;9.43;8.53;;;16.00;99.90;;;;;;5028914;28;20209;-71
2022/07/02 02:03:58;;;;;;;10.03;9.20;;;16.00;99.90;;;;;;5043514;28;20230;-70
2022/07/02 02:06:25;;;;;;;9.43;8.60;;;16.00;99.90;;;;;;5031641;28;20201;-71
2022/07/02 02:08:52;;;;;;;9.67;8.77;;;16.00;99.90;;;;;;5028640;28;20602;-71
2022/07/02 02:11:19;;;;;;;9.93;9.13;;;16.00;99.90;;;;;;5028494;28;20205;-71
2022/07/02 02:13:47;;;;;;;10.13;9.33;;;16.00;99.90;;;;;;5037582;28;20228;-71
2022/07/02 02:16:14;;;;;;;9.60;8.80;;;16.10;99.90;;;;;;5048325;28;20568;-71
2022/07/02 02:18:40;;;;;;;9.77;9.07;;;16.10;99.90;;;;;;5043317;28;20216;-71
2022/07/02 02:21:07;;;;;;;10.27;9.37;;;16.00;99.90;;;;;;5047976;28;20210;-71
2022/07/02 02:23:34;;;;;;;10.00;9.00;;;15.90;99.90;;;;;;5048293;28;20209;-71
2022/07/02 02:26:01;;;;;;;9.33;8.63;;;15.80;99.90;;;;;;5043508;28;20663;-71
2022/07/02 02:28:28;;;;;;;9.80;9.20;;;15.90;99.90;;;;;;5048350;28;20202;-71
2022/07/02 02:30:56;;;;;;;10.43;9.57;;;16.00;99.90;;;;;;5046855;28;20231;-70
2022/07/02 02:33:22;;;;;;;11.37;9.60;;;16.00;99.90;;;;;;5047489;28;20215;-71
2022/07/02 02:35:49;;;;;;;9.03;8.30;;;16.10;99.90;;;;;;5047669;28;20235;-71
2022/07/02 02:38:16;;;;;;;10.60;9.80;;;16.20;99.90;;;;;;5041659;28;20212;-70
2022/07/02 02:40:43;;;;;;;9.80;9.10;;;16.20;99.90;;;;;;5028333;28;20209;-71
2022/07/02 02:43:09;;;;;;;10.10;9.37;;;16.30;99.90;;;;;;5044685;28;20233;-71
2022/07/02 02:45:36;;;;;;;9.43;8.63;;;16.30;99.90;;;;;;5047805;28;20710;-71
2022/07/02 02:48:05;;;;;;;9.60;8.83;;;16.40;99.90;;;;;;5047986;28;20208;-71
2022/07/02 02:50:32;;;;;;;9.50;8.80;;;16.40;99.90;;;;;;5047665;28;20204;-71
2022/07/02 02:52:59;;;;;;;11.03;9.13;;;16.40;99.90;;;;;;5047280;28;20687;-71
2022/07/02 02:55:25;;;;;;;12.87;9.37;;;16.30;99.90;;;;;;5028160;28;20251;-70
2022/07/02 02:57:53;;;;;;;10.27;9.37;;;16.30;99.90;;;;;;5028129;28;20204;-70
2022/07/02 03:00:20;;;;;;;10.57;9.57;;;16.20;99.90;;;;;;5043428;28;20208;-71
2022/07/02 03:02:47;;;;;;;9.93;9.20;;;16.10;99.90;;;;;;5047997;28;20208;-72
2022/07/02 03:05:15;;;;;;;10.47;9.53;;;16.00;99.90;;;;;;5047523;28;20568;-72
2022/07/02 03:07:42;;;;;;;10.70;9.80;;;15.90;99.90;;;;;;5045393;28;20196;-71
2022/07/02 03:10:09;;;;;;;10.80;9.93;;;15.80;99.90;;;;;;5047568;28;20219;-72
2022/07/02 03:12:36;;;;;;;9.83;9.17;;;15.80;99.90;;;;;;5047663;28;20380;-72
2022/07/02 03:15:03;;;;;;;10.27;9.47;;;15.80;99.90;;;;;;5038480;28;20714;-69
2022/07/02 03:17:30;;;;;;;10.80;9.90;;;15.80;99.90;;;;;;5034091;28;20193;-70
2022/07/02 03:19:56;;;;;;;10.63;9.90;;;15.80;99.90;;;;;;5047343;28;20212;-69
2022/07/02 03:22:24;;;;;;;10.70;9.80;;;15.80;99.90;;;;;;5047177;28;20208;-70
2022/07/02 03:24:52;;;;;;;9.87;8.97;;;15.80;99.90;;;;;;5047330;28;20204;-70
2022/07/02 03:27:18;;;;;;;10.60;9.70;;;15.90;99.90;;;;;;5042824;28;20243;-69
2022/07/02 03:29:45;;;;;;;10.77;9.77;;;15.90;99.90;;;;;;5028617;28;20323;-70
2022/07/02 03:32:12;;;;;;;10.90;10.00;;;15.90;99.90;;;;;;5047492;28;20212;-70
2022/07/02 03:34:39;;;;;;;11.67;10.67;;;15.90;99.90;;;;;;5045481;28;20230;-69
2022/07/02 03:37:05;;;;;;;10.30;9.47;;;15.80;99.90;;;;;;5027401;28;20204;-70
2022/07/02 03:39:33;;;;;;;10.57;9.60;;;15.80;99.90;;;;;;5034366;28;20196;-70
2022/07/02 03:42:00;;;;;;;10.40;9.57;;;15.90;99.90;;;;;;5047117;28;20204;-70
2022/07/02 03:44:27;;;;;;;10.20;9.37;;;16.00;99.90;;;;;;5032745;28;20216;-70
2022/07/02 03:46:54;;;;;;;10.93;10.03;;;16.00;99.90;;;;;;5027529;28;20213;-70
2022/07/02 03:49:21;;;;;;;10.87;9.97;;;16.10;99.90;;;;;;5027569;28;20203;-70
2022/07/02 03:51:48;;;;;;;10.53;9.43;;;16.10;99.90;;;;;;5031361;28;20208;-70
2022/07/02 03:54:14;;;;;;;10.10;9.30;;;16.10;99.90;;;;;;5031060;28;20215;-70
2022/07/02 03:56:42;;;;;;;11.20;10.20;;;16.00;99.90;;;;;;5047602;28;20208;-71
2022/07/02 03:59:09;;;;;;;10.57;9.67;;;16.00;99.90;;;;;;5050382;28;20205;-70
2022/07/02 04:01:36;;;;;;;10.83;9.80;;;15.90;99.90;;;;;;5031052;28;20576;-70
2022/07/02 04:04:03;;;;;;;11.27;10.17;;;15.80;99.90;;;;;;5041258;28;20577;-70
2022/07/02 04:06:29;;;;;;;10.00;9.30;;;15.80;99.90;;;;;;5050569;28;20215;-70
2022/07/02 04:08:56;;;;;;;11.20;10.20;;;15.80;99.90;;;;;;5050826;28;20200;-70
2022/07/02 04:11:23;;;;;;;11.00;9.87;;;15.70;99.90;;;;;;5045899;28;20574;-70
2022/07/02 04:13:51;;;;;;;11.53;9.70;;;15.60;99.90;;;;;;5040719;28;20235;-70
2022/07/02 04:16:18;;;;;;;10.63;9.83;;;15.70;99.90;;;;;;5040254;28;20233;-70
2022/07/02 04:18:45;;;;;;;10.23;9.53;;;15.70;99.90;;;;;;5030799;28;20201;-70
2022/07/02 04:21:11;;;;;;;10.40;9.50;;;15.70;99.90;;;;;;5030567;28;20213;-71
2022/07/02 04:23:38;;;;;;;10.10;9.20;;;15.70;99.90;;;;;;5043337;28;20216;-71
2022/07/02 04:26:05;;;;;;;11.53;10.53;;;15.80;99.90;;;;;;5046412;28;20539;-71
2022/07/02 04:28:32;;;;;;;10.57;9.77;;;15.80;99.90;;;;;;5039753;28;20275;-70
2022/07/02 04:31:00;;;;;;;11.03;9.90;;;15.80;99.90;;;;;;5048335;28;20228;-70
2022/07/02 04:33:27;;;;;;;11.63;10.63;;;15.90;99.90;;;;;;5050588;28;20204;-71
2022/07/02 04:35:54;;;;;;;9.93;9.23;;;16.00;99.90;;;;;;5050006;28;20232;-71
2022/07/02 04:38:21;;;;;;;12.30;9.77;;;16.00;99.90;;;;;;5050197;28;20681;-70
2022/07/02 04:40:50;;;;;;;10.80;9.90;;;16.00;99.90;;;;;;5036726;28;20209;-70
2022/07/02 04:43:16;;;;;;;10.97;9.83;;;16.00;99.90;;;;;;5030335;28;20209;-70
2022/07/02 04:45:43;;;;;;;10.10;9.10;;;15.90;99.90;;;;;;5030558;28;20215;-70
2022/07/02 04:48:11;;;;;;;10.27;9.47;;;16.00;99.90;;;;;;5039358;28;20204;-70
2022/07/02 04:50:38;;;;;;;10.10;9.07;;;16.00;99.90;;;;;;5049962;28;20208;-71
2022/07/02 04:53:05;;;;;;;10.20;9.17;;;16.10;99.90;;;;;;5049008;28;20729;-70
2022/07/02 04:55:31;;;;;;;11.63;8.97;;;16.20;99.90;;;;;;5030949;28;20710;-70
2022/07/02 04:57:58;;;;;;;9.33;8.60;;;16.20;99.90;;;;;;5029545;28;20671;-70
2022/07/02 05:00:25;;;;;;;9.77;8.97;;;16.20;99.90;;;;;;5030020;28;20227;-70
2022/07/02 05:02:52;;;;;;;9.33;8.67;;;16.20;99.90;;;;;;5030738;28;20205;-71
2022/07/02 05:05:20;;;;;;;9.60;8.80;;;16.30;99.90;;;;;;5031229;28;20209;-70
2022/07/02 05:07:47;;;;;;;10.07;9.20;;;16.40;99.90;;;;;;5030410;28;20221;-71
2022/07/02 05:10:14;;;;;;;10.13;9.10;;;16.40;99.90;;;;;;5029810;28;20204;-70
2022/07/02 05:12:41;;;;;;;10.10;9.10;;;16.40;99.90;;;;;;5029678;28;20217;-70
2022/07/02 05:15:11;;;;;;;9.23;8.47;;;16.30;99.90;;;;;;5048943;28;20236;-70
2022/07/02 05:17:37;;;;;;;9.23;8.43;;;16.30;99.90;;;;;;5049867;28;20210;-71
2022/07/02 05:20:05;;;;;;;8.90;8.20;;;16.30;99.90;;;;;;5049347;28;20204;-70
2022/07/02 05:22:34;;;;;;;9.77;8.87;;;16.30;99.90;;;;;;5049286;28;20402;-70
2022/07/02 05:25:00;;;;;;;10.43;9.60;;;16.40;99.90;;;;;;5049368;28;20770;-71
2022/07/02 05:27:27;;;;;;;8.93;8.23;;;16.40;99.90;;;;;;5049540;28;20192;-70
2022/07/02 05:29:54;;;;;;;8.23;7.53;;;16.40;99.90;;;;;;5049099;28;20236;-71
2022/07/02 05:32:21;;;;;;;8.50;7.90;;;16.50;99.90;;;;;;5049203;28;20933;-71
2022/07/02 05:34:48;;;;;;;8.93;8.03;;;16.50;99.90;;;;;;5031530;28;20233;-70
2022/07/02 05:37:14;;;;;;;8.23;7.73;;;16.50;99.90;;;;;;5047810;28;20205;-71
2022/07/02 05:39:42;;;;;;;7.80;7.20;;;16.50;99.90;;;;;;5041732;28;20203;-70
2022/07/02 05:42:09;;;;;;;7.87;7.27;;;16.60;99.90;;;;;;5028966;28;20211;-70
2022/07/02 05:44:36;;;;;;;8.67;7.43;;;16.70;99.90;;;;;;5045118;28;20688;-70
2022/07/02 05:47:03;;;;;;;7.73;7.10;;;16.70;99.90;;;;;;5046639;28;20208;-70
2022/07/02 05:49:30;;;;;;;7.37;6.87;;;16.70;99.90;;;;;;5029016;28;20686;-71
2022/07/02 05:51:58;;;;;;;7.97;7.27;;;16.80;99.90;;;;;;5028774;28;20215;-71
2022/07/02 05:54:24;;;;;;;7.67;6.97;;;16.80;99.90;;;;;;5028993;28;20604;-71
2022/07/02 05:56:53;;;;;;;7.53;6.90;;;16.90;99.90;;;;;;5029216;28;20231;-71
2022/07/02 05:59:21;;;;;;;7.33;6.73;;;16.90;99.90;;;;;;5036341;28;20204;-71
2022/07/02 06:01:48;;;;;;;7.57;6.97;;;17.00;99.90;;;;;;5048871;28;20295;-71
2022/07/02 06:04:15;;;;;;;8.43;6.90;;;17.00;99.90;;;;;;5034186;28;20216;-71
2022/07/02 06:09:26;;;;;;;7.57;6.87;;;17.00;99.90;;;;;;5028669;28;20212;-71
2022/07/02 06:11:54;;;;;;;6.83;6.23;;;17.10;99.90;;;;;;5028413;28;20212;-71
2022/07/02 06:14:21;;;;;;;6.63;6.13;;;17.20;99.90;;;;;;5042118;28;20601;-71
2022/07/02 06:16:48;;;;;;;6.40;5.80;;;17.20;99.90;;;;;;5048005;28;21028;-71
2022/07/02 06:19:14;;;;;;;7.40;6.63;;;17.30;99.90;;;;;;5047951;28;20207;-71
2022/07/02 06:21:41;;;;;;;6.80;6.13;;;17.30;99.90;;;;;;5047340;28;20659;-71
2022/07/02 06:24:10;;;;;;;6.77;6.23;;;17.30;99.90;;;;;;5048033;28;20600;-71
2022/07/02 06:26:37;;;;;;;6.87;6.17;;;17.40;99.90;;;;;;5043268;28;20209;-71
2022/07/02 06:29:05;;;;;;;6.70;6.10;;;17.40;99.90;;;;;;5030505;28;20223;-71
2022/07/02 06:31:32;;;;;;;8.13;5.43;;;17.40;99.90;;;;;;5047769;28;20287;-71
2022/07/02 06:33:59;;;;;;;5.83;5.33;;;17.50;99.90;;;;;;5047431;28;20211;-71
2022/07/02 06:36:26;;;;;;;7.67;5.70;;;17.50;99.90;;;;;;5047742;28;20232;-71
2022/07/02 06:38:53;;;;;;;5.70;5.10;;;17.60;99.90;;;;;;5042419;28;20592;-71
2022/07/02 06:44:06;;;;;;;5.80;5.40;;;17.60;99.90;;;;;;5038926;28;20331;-71
2022/07/02 06:46:33;;;;;;;5.90;5.40;;;17.70;99.90;;;;;;5044198;28;20215;-71
2022/07/02 06:49:00;;;;;;;5.33;5.03;;;17.70;99.90;;;;;;5048216;28;20206;-71
2022/07/02 06:51:27;;;;;;;6.03;5.07;;;17.80;99.90;;;;;;5047934;28;20204;-72
2022/07/02 06:54:00;;;;;;;5.97;5.57;;;17.80;99.90;;;;;;5047818;28;20204;-71
2022/07/02 06:56:27;;;;;;;5.67;5.13;;;17.90;99.90;;;;;;5047885;28;20228;-71
2022/07/02 06:58:53;;;;;;;5.10;4.60;;;17.90;99.90;;;;;;5047514;28;20207;-71
2022/07/02 07:01:22;;;;;;;4.73;4.40;;;17.90;99.90;;;;;;5028693;28;20223;-71
2022/07/02 07:03:48;;;;;;;4.70;4.40;;;18.00;99.90;;;;;;5027946;28;20291;-71
2022/07/02 07:06:15;;;;;;;6.00;4.63;;;18.00;99.90;;;;;;5027806;28;20205;-71
2022/07/02 07:08:42;;;;;;;5.60;5.20;;;18.00;99.90;;;;;;5027880;28;20667;-72
2022/07/02 07:11:09;;;;;;;6.27;5.47;;;18.00;99.90;;;;;;5028005;28;20212;-71
2022/07/02 07:13:37;;;;;;;4.93;4.53;;;18.10;99.90;;;;;;5030068;28;20327;-70
2022/07/02 07:16:06;;;;;;;4.80;4.40;;;18.10;99.90;;;;;;5039486;28;20277;-70
2022/07/02 07:18:37;;;;;;;5.33;4.53;;;18.10;99.90;;;;;;5047285;28;20204;-70
2022/07/02 07:21:07;;;;;;;5.63;4.53;;;18.10;99.90;;;;;;5046887;28;20200;-70
2022/07/02 07:23:34;;;;;;;4.63;4.10;;;18.10;99.90;;;;;;5047436;28;20204;-70
2022/07/02 07:26:00;;;;;;;4.73;4.43;;;18.20;99.90;;;;;;5050323;28;20215;-70
2022/07/02 07:28:27;;;;;;;5.43;4.67;;;18.20;99.90;;;;;;5051340;28;20211;-72
2022/07/02 07:30:54;;;;;;;4.70;4.30;;;18.20;99.90;;;;;;5050939;28;20730;-71
2022/07/02 07:33:21;;;;;;;4.77;4.30;;;18.20;99.90;;;;;;5051815;28;20204;-71
2022/07/02 07:35:49;;;;;;;4.10;3.70;;;18.30;99.90;;;;;;5051291;28;20234;-71
2022/07/02 07:38:16;;;;;;;4.70;4.00;;;18.30;99.90;;;;;;5051456;28;20215;-71
2022/07/02 07:40:46;;;;;;;5.17;3.53;;;18.40;99.90;;;;;;5051326;28;20211;-71
2022/07/02 07:43:12;;;;;;;3.73;3.37;;;18.40;99.90;;;;;;5050616;28;20579;-69
2022/07/02 07:45:39;;;;;;;4.90;3.90;;;18.40;99.90;;;;;;5050409;28;20215;-69
2022/07/02 07:48:06;;;;;;;4.97;3.10;;;18.40;99.90;;;;;;5050949;28;20216;-70
2022/07/02 07:50:33;;;;;;;3.70;3.30;;;18.50;99.90;;;;;;5050970;28;20666;-70
2022/07/02 07:53:01;;;;;;;4.00;3.60;;;18.50;99.90;;;;;;5050999;28;20295;-70
2022/07/02 07:55:28;;;;;;;3.63;3.10;;;18.50;99.90;;;;;;5050684;28;20204;-70
2022/07/02 07:57:55;;;;;;;3.13;2.93;;;18.60;99.90;;;;;;5042418;28;20213;-70
2022/07/02 08:00:22;;;;;;;4.30;3.10;;;18.60;99.90;;;;;;5031467;28;20671;-71
2022/07/02 08:02:48;;;;;;;3.47;3.27;;;18.60;99.90;;;;;;5031284;28;20219;-70
2022/07/02 08:05:15;;;;;;;2.50;2.33;;;18.70;99.90;;;;;;5031167;28;20211;-70
2022/07/02 08:07:42;;;;;;;2.17;1.97;;;18.80;99.90;;;;;;5030836;28;20215;-70
2022/07/02 08:10:11;;;;;;;2.43;2.23;;;19.00;99.90;;;;;;5031492;28;20211;-70
2022/07/02 08:12:39;;;;;;;6.07;5.47;;;19.20;99.90;;;;;;5045046;28;20659;-70
2022/07/02 08:15:07;;;;;;;4.50;3.00;;;19.50;99.90;;;;;;5030922;28;20255;-70
2022/07/02 08:17:35;;;;;;;2.60;2.20;;;19.50;99.90;;;;;;5030877;28;20232;-70
2022/07/02 08:20:04;;;;;;;5.63;2.20;;;19.50;99.90;;;;;;5030888;28;20354;-70
2022/07/02 08:22:31;;;;;;;2.17;1.93;;;19.70;99.90;;;;;;5034584;28;20214;-70
2022/07/02 08:24:58;;;;;;;2.50;2.10;;;19.70;99.90;;;;;;5050555;28;20215;-69
2022/07/02 08:27:26;;;;;;;3.80;1.93;;;19.80;99.90;;;;;;5050774;28;20218;-70
2022/07/02 08:29:53;;;;;;;5.80;2.17;;;20.00;99.90;;;;;;5049962;28;20230;-70
2022/07/02 08:32:20;;;;;;;3.33;1.50;;;20.00;99.90;;;;;;5039884;28;20201;-70
2022/07/02 08:34:47;;;;;;;2.40;1.87;;;20.10;99.90;;;;;;5030776;28;20219;-70
2022/07/02 08:37:14;;;;;;;5.30;1.87;;;20.30;99.90;;;;;;5039833;28;20242;-70
2022/07/02 08:39:41;;;;;;;2.33;1.60;;;20.40;99.90;;;;;;5050591;28;20215;-70
2022/07/02 08:42:10;;;;;;;1.67;1.07;;;20.50;99.90;;;;;;5048418;28;20203;-71
2022/07/02 08:44:39;;;;;;;1.57;1.40;;;20.50;99.90;;;;;;5050303;28;20224;-70
2022/07/02 08:47:09;;;;;;;4.20;1.70;;;20.60;99.90;;;;;;5030813;28;20215;-70
2022/07/02 08:49:38;;;;;;;2.10;1.80;;;20.60;99.90;;;;;;5030175;28;20204;-72
2022/07/02 08:52:07;;;;;;;2.13;1.90;;;20.60;99.90;;;;;;5034141;28;20706;-72
2022/07/02 08:54:34;;;;;;;1.70;1.60;;;20.60;99.90;;;;;;5038696;28;20209;-72
2022/07/02 08:57:02;;;;;;;4.33;1.90;;;20.80;99.90;;;;;;5030126;28;20221;-71
2022/07/02 08:59:31;;;;;;;2.00;1.80;;;20.90;99.90;;;;;;5030017;28;20213;-72
2022/07/02 09:02:00;;;;;;;1.83;1.53;;;20.90;99.90;;;;;;5030009;28;20573;-72
2022/07/02 09:04:27;;;;;;;2.17;2.00;;;20.90;99.90;;;;;;5030181;28;20204;-71
2022/07/02 09:06:57;;;;;;;2.00;1.70;;;20.80;99.90;;;;;;5030787;28;20698;-71
2022/07/02 09:09:24;;;;;;;1.93;1.70;;;20.90;99.90;;;;;;5048109;28;20654;-72
2022/07/02 09:11:51;;;;;;;4.47;1.93;;;21.00;99.90;;;;;;5049699;28;20204;-71
2022/07/02 09:14:18;;;;;;;3.73;1.57;;;20.90;99.90;;;;;;5048948;28;20726;-72
2022/07/02 09:16:46;;;;;;;2.27;2.07;;;21.00;99.90;;;;;;5049759;28;20230;-72
2022/07/02 09:19:14;;;;;;;3.07;1.50;;;21.00;99.90;;;;;;5036934;28;20686;-72
2022/07/02 09:21:42;;;;;;;2.40;1.40;;;21.10;99.90;;;;;;5048966;28;20196;-72
2022/07/02 09:24:09;;;;;;;4.37;1.53;;;21.10;99.90;;;;;;5049453;28;20206;-72
2022/07/02 09:26:36;;;;;;;3.93;1.53;;;21.20;99.90;;;;;;5049866;28;20208;-72
2022/07/02 09:29:04;;;;;;;1.20;1.10;;;21.30;99.90;;;;;;5049232;28;20208;-72
2022/07/02 09:31:31;;;;;;;3.80;1.10;;;21.30;99.90;;;;;;5035515;28;20256;-72
2022/07/02 09:33:59;;;;;;;1.80;1.50;;;21.30;99.80;;;;;;5043742;28;20211;-70
2022/07/02 09:36:27;;;;;;;3.53;1.60;;;21.40;99.90;;;;;;5049117;28;20236;-70
2022/07/02 09:38:55;;;;;;;1.17;1.10;;;21.40;99.90;;;;;;5049152;28;20218;-70
2022/07/02 09:41:23;;;;;;;1.53;1.43;;;21.50;99.90;;;;;;5047820;28;20208;-70
2022/07/02 09:43:54;;;;;;;1.70;1.20;;;21.50;99.90;;;;;;5047963;28;20212;-71
2022/07/02 09:46:22;;;;;;;1.67;1.37;;;21.70;99.40;;;;;;5049221;28;20208;-72
2022/07/02 09:48:49;;;;;;;2.97;1.20;;;21.70;99.30;;;;;;5038311;28;20216;-70
2022/07/02 09:51:17;;;;;;;1.80;1.03;;;21.80;99.20;;;;;;5028457;28;20204;-71
2022/07/02 09:53:53;;;;;;;1.60;1.50;;;21.90;98.70;;;;;;5047556;28;20207;-71
2022/07/02 09:56:21;;;;;;;1.60;1.20;;;22.00;98.90;;;;;;5048945;28;20262;-71
2022/07/02 09:58:49;;;;;;;1.30;1.10;;;22.10;98.10;;;;;;5048732;28;20656;-71
2022/07/02 10:01:19;;;;;;;4.70;1.37;;;22.20;98.30;;;;;;5048697;28;20247;-71
2022/07/02 10:03:47;;;;;;;2.73;1.20;;;22.20;99.40;;;;;;5048345;28;20203;-71
2022/07/02 10:06:14;;;;;;;1.30;1.20;;;22.30;99.10;;;;;;5048048;28;20666;-71
2022/07/02 10:08:42;;;;;;;4.20;1.53;;;22.40;99.00;;;;;;5048388;28;20208;-70
2022/07/02 10:11:12;;;;;;;1.57;1.47;;;22.40;98.30;;;;;;5048314;28;20204;-71
2022/07/02 10:13:40;;;;;;;1.87;1.13;;;22.40;98.60;;;;;;5048091;28;20232;-72
2022/07/02 10:16:12;;;;;;;1.10;1.10;;;22.30;97.60;;;;;;5048268;28;20207;-71
2022/07/02 10:18:41;;;;;;;2.63;1.47;;;22.30;97.10;;;;;;5048512;28;20188;-71
2022/07/02 10:21:11;;;;;;;1.30;1.20;;;22.40;97.70;;;;;;5047897;28;20204;-71
2022/07/02 10:23:39;;;;;;;1.13;1.10;;;22.50;97.80;;;;;;5037089;28;20211;-71
2022/07/02 10:26:06;;;;;;;2.40;1.20;;;22.50;96.80;;;;;;5028278;28;20212;-72
2022/07/02 10:28:34;;;;;;;2.47;1.20;;;22.50;98.10;;;;;;5028750;28;20209;-71
2022/07/02 10:31:06;;;;;;;1.40;1.30;;;22.50;98.10;;;;;;5047841;28;20278;-71
2022/07/02 10:33:39;;;;;;;1.25;1.15;;;22.60;97.70;;;;;;5048279;28;20203;-71
2022/07/02 10:36:10;;;;;;;2.97;1.25;;;22.60;96.90;;;;;;5047967;28;20192;-71
2022/07/02 10:38:39;;;;;;;3.85;1.05;;;22.60;96.20;;;;;;5030982;28;20610;-72
2022/07/02 10:41:07;;;;;;;1.63;1.20;;;22.70;96.10;;;;;;5027847;28;20566;-72
2022/07/02 10:43:36;;;;;;;1.95;1.02;;;22.80;95.90;;;;;;5035496;28;20197;-72
2022/07/02 10:46:08;;;;;;;1.60;1.13;;;23.00;94.30;;;;;;5042230;28;20208;-72
2022/07/02 10:48:36;;;;;;;2.30;1.13;;;23.00;95.40;;;;;;5047981;28;20200;-72
2022/07/02 10:51:06;;;;;;;1.52;1.20;;;23.00;95.20;;;;;;5047388;28;20955;-72
2022/07/02 10:53:34;;;;;;;1.17;1.08;;;23.00;94.70;;;;;;5048220;28;20211;-72
2022/07/02 10:56:04;;;;;;;1.27;0.83;;;22.80;94.80;;;;;;5047721;28;20211;-72
2022/07/02 10:58:34;;;;;;;1.73;1.20;;;22.80;95.30;;;;;;5046944;28;20266;-72
2022/07/02 11:01:13;;;;;;;2.00;1.20;;;22.90;94.90;;;;;;5047635;28;20204;-72
2022/07/02 11:03:52;;;;;;;1.40;1.30;;;23.00;95.10;;;;;;5047709;28;20204;-72
2022/07/02 11:06:22;;;;;;;2.58;1.25;;;23.10;95.10;;;;;;5047609;28;20291;-72
2022/07/02 11:08:50;;;;;;;2.40;1.10;;;23.20;95.90;;;;;;5047421;28;20204;-72
2022/07/02 11:11:21;;;;;;;2.22;2.00;;;23.40;95.40;;;;;;5036005;28;20205;-72
2022/07/02 11:13:51;;;;;;;2.70;1.45;;;23.40;95.00;;;;;;5036616;28;20702;-72
2022/07/02 11:16:24;;;;;;;1.05;1.00;;;23.40;94.40;;;;;;5047584;28;20243;-72
2022/07/02 11:18:52;;;;;;;2.17;1.10;;;23.30;94.40;;;;;;5047671;28;20200;-72
2022/07/02 11:21:20;;;;;;;2.20;1.30;;;23.30;94.90;;;;;;5047469;28;20204;-73
2022/07/02 11:23:47;;;;;;;3.38;1.30;;;23.30;95.60;;;;;;5043567;28;20215;-72
2022/07/02 11:26:18;;;;;;;1.60;1.30;;;23.30;95.00;;;;;;5047230;28;20215;-72
2022/07/02 11:28:46;;;;;;;1.25;1.20;;;23.50;95.40;;;;;;5047402;28;20212;-72
2022/07/02 11:31:13;;;;;;;3.80;1.20;;;23.70;94.40;;;;;;5047325;28;20239;-72
2022/07/02 11:33:46;;;;;;;1.52;1.42;;;23.90;94.20;;;;;;5047025;28;20207;-71
2022/07/02 11:36:13;;;;;;;1.65;1.42;;;24.00;93.30;;;;;;5047642;28;20210;-73
2022/07/02 11:38:41;;;;;;;2.97;1.58;;;24.20;93.40;;;;;;5047551;28;20239;-72
2022/07/02 11:41:19;;;;;;;1.80;1.17;;;24.40;92.80;;;;;;5044600;28;20205;-73
2022/07/02 11:43:46;;;;;;;3.15;1.17;;;24.60;93.10;;;;;;5036621;28;20219;-73
2022/07/02 11:46:14;;;;;;;2.75;1.35;;;24.70;92.90;;;;;;5046751;28;20207;-72
2022/07/02 11:48:41;;;;;;;1.25;1.15;;;24.90;91.50;;;;;;5036918;28;20267;-73
2022/07/02 11:51:09;;;;;;;1.33;1.10;;;25.00;91.50;;;;;;5027323;28;20212;-73
2022/07/02 11:53:37;;;;;;;1.77;1.02;;;25.10;91.00;;;;;;5027312;28;20667;-73
2022/07/02 11:56:08;;;;;;;2.00;1.17;;;25.20;91.00;;;;;;5028831;28;20283;-72
2022/07/02 11:58:42;;;;;;;1.27;1.13;;;25.40;91.50;;;;;;5046588;28;20324;-73
2022/07/02 12:01:25;;;;;;;2.47;1.40;;;25.60;90.90;;;;;;5047610;28;20671;-73
2022/07/02 12:03:53;;;;;;;2.78;1.00;;;25.80;91.30;;;;;;5045461;28;20676;-73
2022/07/02 12:06:22;;;;;;;1.52;1.40;;;25.90;90.00;;;;;;5046806;28;20675;-73
2022/07/02 12:08:52;;;;;;;1.38;1.20;;;25.90;89.80;;;;;;5047272;28;20212;-73
2022/07/02 12:11:20;;;;;;;2.05;1.52;;;25.90;90.00;;;;;;5047058;28;20200;-72
2022/07/02 12:13:47;;;;;;;3.17;1.38;;;25.90;89.70;;;;;;5050891;28;20236;-71
2022/07/02 12:16:18;;;;;;;1.20;1.10;;;25.80;90.00;;;;;;5047738;28;20201;-72
2022/07/02 12:18:56;;;;;;;2.15;1.40;;;25.70;90.90;;;;;;5030633;28;20221;-71
2022/07/02 12:21:32;;;;;;;1.50;0.95;;;25.80;91.60;;;;;;5033816;28;20200;-71
2022/07/02 12:23:58;;;;;;;3.40;1.00;;;26.00;91.30;;;;;;5045739;28;20208;-72
2022/07/02 12:26:27;;;;;;;1.30;0.90;;;26.20;88.80;;;;;;5050660;28;20219;-71
2022/07/02 12:31:48;;;;;;;1.67;0.80;;;26.50;88.80;;;;;;5050543;28;20220;-71
2022/07/02 12:34:15;;;;;;;1.92;1.35;;;26.70;88.90;;;;;;5050392;28;20208;-71
2022/07/02 12:36:55;;;;;;;1.05;1.05;;;26.90;88.20;;;;;;5050044;28;20204;-71
2022/07/02 12:39:23;;;;;;;2.80;1.10;;;26.90;86.10;;;;;;5031742;28;20212;-71
2022/07/02 12:41:50;;;;;;;2.05;1.23;;;26.90;86.50;;;;;;5030620;28;20208;-71
2022/07/02 12:44:19;;;;;;;1.42;1.10;;;27.00;85.80;;;;;;5041799;28;20208;-71
2022/07/02 12:46:48;;;;;;;1.17;1.17;;;27.10;85.50;;;;;;5038772;28;20207;-71
2022/07/02 12:49:16;;;;;;;1.23;1.10;;;26.90;86.60;;;;;;5049996;28;20212;-71
2022/07/02 12:51:53;;;;;;;2.53;1.27;;;27.00;86.50;;;;;;5049769;28;20223;-71
2022/07/02 12:54:20;;;;;;;4.45;1.08;;;27.20;85.30;;;;;;5047694;28;20208;-72
2022/07/02 12:56:47;;;;;;;4.45;1.35;;;27.40;87.80;;;;;;5041950;28;20197;-71
2022/07/02 12:59:14;;;;;;;1.25;1.10;;;27.70;86.50;;;;;;5049403;28;20243;-71